Charter Quote
Worldwide +1-877-727-2538 Call
Select Language Lang
SAFETY RELIABILITY EXPERIENCE

Private Jet Charter Services - Qingyang Airport (ZLQY)

Paramount Business Jets offers private jet charter flights and luxury airliner charters to and from Qingyang Airport.

AIRPORT INFORMATION
ICAOZLQY
IATAIQN
LOCATIONQingyang, China
FACILITY TYPEAIRPORT

At Paramount Business Jets you can hire chartered private jets to and from Qingyang Airport with as little as 4 hours of notice. All flights booked via Paramount Business Jets are operated by certified direct air carriers that meet and exceed the FAA part 135 and 121 protocol or a foreign equivalent safety authority. Furthermore, Paramount Business Jets subscribes to ARGUS for their third party safety checks of operators, aircraft, and crews prior each and every flight to and from Qingyang Airport and worldwide.

  • Quote a trip using Qingyang Airport or call us 24/7 - 365 days a year at +1-877-727-2538.
Questions? Call +1-877-727-2538

METAR Weather Data at Qingyang Airport, ZLQY, IQN

STATIONZLQY
OBSERVEDFri Oct 18, 22:30 UTC
NOWThu Nov 14, 16:47 UTC
AGE53226:17 hr ago
WINDN at 9 mph
VISIBILITYgreater than 7 miles
CLOUDSclear skies
TEMP41°F (5°C)
WIND CHILL35°F (2°C)
DEWPT28°F (-2°C)
HUMIDITY61%
BAROMETER1029 hPa (30.39 in Hg)
METARZLQY 182230Z 01004MPS CAVOK 05/M02 Q1029 NOSIG

Call us on +1-877-727-2538 (24 Hours), Check our Pricing, or Get a Quick Quote.

Find Airports Near any Location

Processing
...